sensor_id;sensor_type;location;lat;lon;timestamp;P1;durP1;ratioP1;P2;durP2;ratioP2
751;SDS011;360;48.764;9.164;2022-12-20T00:01:20;3.70;;;3.03;;
751;SDS011;360;48.764;9.164;2022-12-20T00:03:48;6.60;;;3.30;;
751;SDS011;360;48.764;9.164;2022-12-20T00:06:16;4.40;;;2.60;;
751;SDS011;360;48.764;9.164;2022-12-20T00:08:44;4.60;;;2.60;;
751;SDS011;360;48.764;9.164;2022-12-20T00:11:11;8.23;;;4.40;;
751;SDS011;360;48.764;9.164;2022-12-20T00:13:39;6.83;;;3.53;;
751;SDS011;360;48.764;9.164;2022-12-20T00:16:08;7.37;;;4.67;;
751;SDS011;360;48.764;9.164;2022-12-20T00:18:36;2.70;;;2.40;;
751;SDS011;360;48.764;9.164;2022-12-20T00:21:04;3.73;;;2.87;;
751;SDS011;360;48.764;9.164;2022-12-20T00:23:33;4.43;;;3.10;;
751;SDS011;360;48.764;9.164;2022-12-20T00:26:01;5.27;;;3.23;;
751;SDS011;360;48.764;9.164;2022-12-20T00:28:29;5.10;;;3.60;;
751;SDS011;360;48.764;9.164;2022-12-20T00:30:56;5.30;;;3.87;;
751;SDS011;360;48.764;9.164;2022-12-20T00:33:25;4.20;;;2.63;;
751;SDS011;360;48.764;9.164;2022-12-20T00:35:53;5.30;;;3.50;;
751;SDS011;360;48.764;9.164;2022-12-20T00:38:20;6.30;;;3.70;;
751;SDS011;360;48.764;9.164;2022-12-20T00:40:57;12.17;;;4.00;;
751;SDS011;360;48.764;9.164;2022-12-20T00:43:25;6.73;;;4.30;;
751;SDS011;360;48.764;9.164;2022-12-20T00:45:52;5.00;;;4.50;;
751;SDS011;360;48.764;9.164;2022-12-20T00:48:18;4.40;;;2.77;;
751;SDS011;360;48.764;9.164;2022-12-20T00:50:47;5.67;;;2.87;;
751;SDS011;360;48.764;9.164;2022-12-20T00:53:13;6.77;;;3.43;;
751;SDS011;360;48.764;9.164;2022-12-20T00:55:40;4.93;;;4.13;;
751;SDS011;360;48.764;9.164;2022-12-20T00:58:07;5.03;;;3.20;;
751;SDS011;360;48.764;9.164;2022-12-20T01:00:34;3.33;;;2.93;;
751;SDS011;360;48.764;9.164;2022-12-20T01:03:01;5.03;;;3.53;;
751;SDS011;360;48.764;9.164;2022-12-20T01:05:28;6.10;;;4.77;;
751;SDS011;360;48.764;9.164;2022-12-20T01:07:56;9.10;;;4.33;;
751;SDS011;360;48.764;9.164;2022-12-20T01:10:24;5.53;;;3.80;;
751;SDS011;360;48.764;9.164;2022-12-20T01:12:51;7.47;;;5.17;;
751;SDS011;360;48.764;9.164;2022-12-20T01:15:18;7.50;;;4.93;;
751;SDS011;360;48.764;9.164;2022-12-20T01:17:45;6.03;;;4.67;;
751;SDS011;360;48.764;9.164;2022-12-20T01:20:12;7.63;;;5.60;;
751;SDS011;360;48.764;9.164;2022-12-20T01:22:39;8.23;;;5.60;;
751;SDS011;360;48.764;9.164;2022-12-20T01:25:07;6.03;;;4.67;;
751;SDS011;360;48.764;9.164;2022-12-20T01:27:34;7.53;;;4.77;;
751;SDS011;360;48.764;9.164;2022-12-20T01:30:01;7.67;;;5.17;;
751;SDS011;360;48.764;9.164;2022-12-20T01:32:28;8.73;;;5.10;;
751;SDS011;360;48.764;9.164;2022-12-20T01:34:55;5.90;;;4.83;;
751;SDS011;360;48.764;9.164;2022-12-20T01:37:22;8.53;;;4.90;;
751;SDS011;360;48.764;9.164;2022-12-20T01:39:49;7.30;;;4.70;;
751;SDS011;360;48.764;9.164;2022-12-20T01:42:17;9.93;;;5.83;;
751;SDS011;360;48.764;9.164;2022-12-20T01:44:51;9.07;;;5.47;;
751;SDS011;360;48.764;9.164;2022-12-20T01:47:21;7.40;;;4.83;;
751;SDS011;360;48.764;9.164;2022-12-20T01:49:49;6.37;;;4.93;;
751;SDS011;360;48.764;9.164;2022-12-20T01:52:20;7.93;;;5.07;;
751;SDS011;360;48.764;9.164;2022-12-20T01:54:50;11.63;;;6.60;;
751;SDS011;360;48.764;9.164;2022-12-20T01:57:23;7.73;;;5.10;;
751;SDS011;360;48.764;9.164;2022-12-20T01:59:54;8.10;;;5.53;;
751;SDS011;360;48.764;9.164;2022-12-20T02:02:22;7.83;;;4.50;;
751;SDS011;360;48.764;9.164;2022-12-20T02:04:49;7.33;;;4.17;;
751;SDS011;360;48.764;9.164;2022-12-20T02:07:16;4.93;;;4.07;;
751;SDS011;360;48.764;9.164;2022-12-20T02:09:46;8.33;;;5.23;;
751;SDS011;360;48.764;9.164;2022-12-20T02:12:14;8.20;;;5.80;;
751;SDS011;360;48.764;9.164;2022-12-20T02:14:50;10.37;;;4.90;;
751;SDS011;360;48.764;9.164;2022-12-20T02:17:44;8.07;;;4.27;;
751;SDS011;360;48.764;9.164;2022-12-20T02:20:26;10.23;;;4.93;;
751;SDS011;360;48.764;9.164;2022-12-20T02:26:14;13.07;;;6.20;;
751;SDS011;360;48.764;9.164;2022-12-20T02:29:09;6.87;;;5.47;;
751;SDS011;360;48.764;9.164;2022-12-20T02:31:49;7.30;;;4.70;;
751;SDS011;360;48.764;9.164;2022-12-20T02:34:26;6.23;;;5.50;;
751;SDS011;360;48.764;9.164;2022-12-20T02:36:56;9.57;;;5.47;;
751;SDS011;360;48.764;9.164;2022-12-20T02:39:22;8.43;;;4.47;;
751;SDS011;360;48.764;9.164;2022-12-20T02:41:54;9.37;;;6.20;;
751;SDS011;360;48.764;9.164;2022-12-20T02:44:25;8.33;;;6.33;;
751;SDS011;360;48.764;9.164;2022-12-20T02:47:13;5.90;;;4.93;;
751;SDS011;360;48.764;9.164;2022-12-20T02:49:44;12.07;;;4.90;;
751;SDS011;360;48.764;9.164;2022-12-20T02:52:12;10.83;;;5.57;;
751;SDS011;360;48.764;9.164;2022-12-20T02:54:40;6.93;;;5.23;;
751;SDS011;360;48.764;9.164;2022-12-20T02:57:08;8.23;;;5.17;;
751;SDS011;360;48.764;9.164;2022-12-20T02:59:42;8.40;;;5.43;;
751;SDS011;360;48.764;9.164;2022-12-20T03:02:16;9.73;;;5.77;;
751;SDS011;360;48.764;9.164;2022-12-20T03:04:43;6.50;;;5.10;;
751;SDS011;360;48.764;9.164;2022-12-20T03:07:12;9.37;;;5.33;;
751;SDS011;360;48.764;9.164;2022-12-20T03:09:40;13.20;;;5.73;;
751;SDS011;360;48.764;9.164;2022-12-20T03:12:09;7.43;;;3.83;;
751;SDS011;360;48.764;9.164;2022-12-20T03:14:37;6.27;;;4.33;;
751;SDS011;360;48.764;9.164;2022-12-20T03:17:04;7.50;;;5.20;;
751;SDS011;360;48.764;9.164;2022-12-20T03:19:33;4.90;;;4.40;;
751;SDS011;360;48.764;9.164;2022-12-20T03:22:00;7.43;;;4.80;;
751;SDS011;360;48.764;9.164;2022-12-20T03:24:27;10.77;;;5.77;;
751;SDS011;360;48.764;9.164;2022-12-20T03:26:54;5.80;;;4.33;;
751;SDS011;360;48.764;9.164;2022-12-20T03:29:21;4.60;;;4.17;;
751;SDS011;360;48.764;9.164;2022-12-20T03:31:47;5.93;;;4.00;;
751;SDS011;360;48.764;9.164;2022-12-20T03:34:14;4.90;;;3.50;;
751;SDS011;360;48.764;9.164;2022-12-20T03:36:42;8.57;;;4.70;;
751;SDS011;360;48.764;9.164;2022-12-20T03:39:09;5.10;;;3.73;;
751;SDS011;360;48.764;9.164;2022-12-20T03:41:36;8.20;;;4.97;;
751;SDS011;360;48.764;9.164;2022-12-20T03:44:03;8.73;;;4.27;;
751;SDS011;360;48.764;9.164;2022-12-20T03:46:30;8.77;;;4.77;;
751;SDS011;360;48.764;9.164;2022-12-20T03:48:56;6.80;;;3.50;;
751;SDS011;360;48.764;9.164;2022-12-20T03:51:23;5.90;;;4.03;;
751;SDS011;360;48.764;9.164;2022-12-20T03:53:51;9.93;;;4.53;;
751;SDS011;360;48.764;9.164;2022-12-20T03:56:18;3.97;;;3.47;;
751;SDS011;360;48.764;9.164;2022-12-20T03:58:45;6.50;;;4.10;;
751;SDS011;360;48.764;9.164;2022-12-20T04:01:15;4.17;;;2.93;;
751;SDS011;360;48.764;9.164;2022-12-20T04:03:46;8.40;;;4.80;;
751;SDS011;360;48.764;9.164;2022-12-20T04:06:14;7.33;;;3.73;;
751;SDS011;360;48.764;9.164;2022-12-20T04:08:40;5.47;;;3.33;;
751;SDS011;360;48.764;9.164;2022-12-20T04:11:09;8.03;;;4.03;;
751;SDS011;360;48.764;9.164;2022-12-20T04:13:42;4.33;;;3.47;;
751;SDS011;360;48.764;9.164;2022-12-20T04:16:10;3.10;;;2.80;;
751;SDS011;360;48.764;9.164;2022-12-20T04:18:37;6.23;;;3.60;;
751;SDS011;360;48.764;9.164;2022-12-20T04:21:04;5.50;;;3.60;;
751;SDS011;360;48.764;9.164;2022-12-20T04:23:32;5.63;;;4.10;;
751;SDS011;360;48.764;9.164;2022-12-20T04:26:00;5.83;;;4.23;;
751;SDS011;360;48.764;9.164;2022-12-20T04:28:28;7.80;;;3.97;;
751;SDS011;360;48.764;9.164;2022-12-20T04:30:56;5.60;;;3.10;;
751;SDS011;360;48.764;9.164;2022-12-20T04:33:23;4.80;;;3.17;;
751;SDS011;360;48.764;9.164;2022-12-20T04:35:51;5.63;;;3.93;;
751;SDS011;360;48.764;9.164;2022-12-20T04:38:18;5.00;;;4.30;;
751;SDS011;360;48.764;9.164;2022-12-20T04:40:47;5.13;;;3.40;;
751;SDS011;360;48.764;9.164;2022-12-20T04:43:15;8.30;;;3.67;;
751;SDS011;360;48.764;9.164;2022-12-20T04:45:43;5.00;;;3.63;;
751;SDS011;360;48.764;9.164;2022-12-20T04:48:10;6.37;;;3.53;;
751;SDS011;360;48.764;9.164;2022-12-20T04:50:37;5.07;;;3.43;;
751;SDS011;360;48.764;9.164;2022-12-20T04:53:03;6.20;;;2.50;;
751;SDS011;360;48.764;9.164;2022-12-20T04:55:48;4.97;;;3.47;;
751;SDS011;360;48.764;9.164;2022-12-20T04:58:15;4.60;;;3.10;;
751;SDS011;360;48.764;9.164;2022-12-20T05:00:44;5.27;;;3.20;;
751;SDS011;360;48.764;9.164;2022-12-20T05:03:11;6.03;;;3.83;;
751;SDS011;360;48.764;9.164;2022-12-20T05:05:37;5.60;;;3.37;;
751;SDS011;360;48.764;9.164;2022-12-20T05:08:04;5.97;;;3.97;;
751;SDS011;360;48.764;9.164;2022-12-20T05:10:31;5.77;;;3.03;;
751;SDS011;360;48.764;9.164;2022-12-20T05:12:58;5.30;;;3.23;;
751;SDS011;360;48.764;9.164;2022-12-20T05:15:24;5.47;;;2.67;;
751;SDS011;360;48.764;9.164;2022-12-20T05:17:53;4.23;;;3.17;;
751;SDS011;360;48.764;9.164;2022-12-20T05:20:23;6.43;;;2.83;;
751;SDS011;360;48.764;9.164;2022-12-20T05:22:50;4.17;;;2.40;;
751;SDS011;360;48.764;9.164;2022-12-20T05:25:35;5.00;;;3.20;;
751;SDS011;360;48.764;9.164;2022-12-20T05:28:29;5.43;;;3.03;;
751;SDS011;360;48.764;9.164;2022-12-20T05:30:56;3.60;;;2.97;;
751;SDS011;360;48.764;9.164;2022-12-20T05:33:25;6.10;;;2.83;;
751;SDS011;360;48.764;9.164;2022-12-20T05:35:51;6.83;;;3.47;;
751;SDS011;360;48.764;9.164;2022-12-20T05:38:18;4.37;;;2.87;;
751;SDS011;360;48.764;9.164;2022-12-20T05:40:46;4.70;;;2.73;;
751;SDS011;360;48.764;9.164;2022-12-20T05:43:13;5.13;;;3.57;;
751;SDS011;360;48.764;9.164;2022-12-20T05:45:44;4.77;;;2.90;;
751;SDS011;360;48.764;9.164;2022-12-20T05:48:12;3.37;;;3.10;;
751;SDS011;360;48.764;9.164;2022-12-20T05:50:40;3.93;;;3.30;;
751;SDS011;360;48.764;9.164;2022-12-20T05:53:08;4.53;;;2.60;;
751;SDS011;360;48.764;9.164;2022-12-20T05:55:35;4.27;;;2.87;;
751;SDS011;360;48.764;9.164;2022-12-20T05:58:04;5.13;;;2.70;;
751;SDS011;360;48.764;9.164;2022-12-20T06:00:31;3.80;;;2.70;;
751;SDS011;360;48.764;9.164;2022-12-20T06:02:58;4.37;;;3.60;;
751;SDS011;360;48.764;9.164;2022-12-20T06:05:25;3.07;;;2.77;;
751;SDS011;360;48.764;9.164;2022-12-20T06:07:53;3.10;;;2.17;;
751;SDS011;360;48.764;9.164;2022-12-20T06:10:20;3.83;;;2.30;;
751;SDS011;360;48.764;9.164;2022-12-20T06:12:47;7.10;;;3.23;;
751;SDS011;360;48.764;9.164;2022-12-20T06:15:14;6.00;;;2.17;;
751;SDS011;360;48.764;9.164;2022-12-20T06:17:41;4.83;;;3.03;;
751;SDS011;360;48.764;9.164;2022-12-20T06:20:08;2.73;;;1.80;;
751;SDS011;360;48.764;9.164;2022-12-20T06:22:36;6.90;;;3.03;;
751;SDS011;360;48.764;9.164;2022-12-20T06:25:04;3.83;;;2.63;;
751;SDS011;360;48.764;9.164;2022-12-20T06:27:33;4.43;;;3.73;;
751;SDS011;360;48.764;9.164;2022-12-20T06:30:00;5.30;;;3.50;;
751;SDS011;360;48.764;9.164;2022-12-20T06:32:27;5.07;;;2.87;;
751;SDS011;360;48.764;9.164;2022-12-20T06:34:53;4.87;;;3.17;;
751;SDS011;360;48.764;9.164;2022-12-20T06:37:20;4.50;;;2.80;;
751;SDS011;360;48.764;9.164;2022-12-20T06:39:47;4.13;;;2.67;;
751;SDS011;360;48.764;9.164;2022-12-20T06:42:15;9.30;;;2.90;;
751;SDS011;360;48.764;9.164;2022-12-20T06:44:42;6.50;;;3.33;;
751;SDS011;360;48.764;9.164;2022-12-20T06:47:09;4.93;;;2.63;;
751;SDS011;360;48.764;9.164;2022-12-20T06:49:36;4.00;;;2.67;;
751;SDS011;360;48.764;9.164;2022-12-20T06:52:03;4.47;;;2.53;;
751;SDS011;360;48.764;9.164;2022-12-20T06:54:30;4.80;;;2.97;;
751;SDS011;360;48.764;9.164;2022-12-20T06:56:57;4.07;;;2.80;;
751;SDS011;360;48.764;9.164;2022-12-20T06:59:25;8.77;;;2.77;;
751;SDS011;360;48.764;9.164;2022-12-20T07:01:52;4.40;;;2.70;;
751;SDS011;360;48.764;9.164;2022-12-20T07:04:18;7.70;;;1.97;;
751;SDS011;360;48.764;9.164;2022-12-20T07:06:45;5.30;;;2.47;;
751;SDS011;360;48.764;9.164;2022-12-20T07:09:12;4.83;;;2.73;;
751;SDS011;360;48.764;9.164;2022-12-20T07:11:39;3.40;;;2.23;;
751;SDS011;360;48.764;9.164;2022-12-20T07:14:07;7.10;;;2.70;;
751;SDS011;360;48.764;9.164;2022-12-20T07:16:36;3.50;;;2.90;;
751;SDS011;360;48.764;9.164;2022-12-20T07:19:05;2.83;;;2.50;;
751;SDS011;360;48.764;9.164;2022-12-20T07:21:32;3.00;;;2.00;;
751;SDS011;360;48.764;9.164;2022-12-20T07:23:59;4.47;;;2.77;;
751;SDS011;360;48.764;9.164;2022-12-20T07:26:25;5.37;;;4.23;;
751;SDS011;360;48.764;9.164;2022-12-20T07:28:52;4.00;;;2.87;;
751;SDS011;360;48.764;9.164;2022-12-20T07:31:19;3.87;;;2.30;;
751;SDS011;360;48.764;9.164;2022-12-20T07:33:47;2.63;;;2.17;;
751;SDS011;360;48.764;9.164;2022-12-20T07:36:15;3.50;;;2.10;;
751;SDS011;360;48.764;9.164;2022-12-20T07:38:42;2.53;;;1.60;;
751;SDS011;360;48.764;9.164;2022-12-20T07:41:09;4.30;;;2.90;;
751;SDS011;360;48.764;9.164;2022-12-20T07:43:36;3.93;;;2.13;;
751;SDS011;360;48.764;9.164;2022-12-20T07:46:04;4.70;;;2.53;;
751;SDS011;360;48.764;9.164;2022-12-20T07:48:31;5.40;;;3.10;;
751;SDS011;360;48.764;9.164;2022-12-20T07:51:01;3.63;;;2.67;;
751;SDS011;360;48.764;9.164;2022-12-20T07:53:29;3.30;;;2.30;;
751;SDS011;360;48.764;9.164;2022-12-20T07:55:56;3.37;;;3.07;;
751;SDS011;360;48.764;9.164;2022-12-20T07:58:24;4.00;;;2.70;;
751;SDS011;360;48.764;9.164;2022-12-20T08:00:52;2.50;;;1.93;;
751;SDS011;360;48.764;9.164;2022-12-20T08:03:20;3.60;;;2.37;;
751;SDS011;360;48.764;9.164;2022-12-20T08:05:49;3.93;;;3.07;;
751;SDS011;360;48.764;9.164;2022-12-20T08:08:18;3.90;;;2.63;;
751;SDS011;360;48.764;9.164;2022-12-20T08:10:46;3.60;;;2.20;;
751;SDS011;360;48.764;9.164;2022-12-20T08:13:14;2.83;;;1.80;;
751;SDS011;360;48.764;9.164;2022-12-20T08:15:41;2.93;;;2.47;;
751;SDS011;360;48.764;9.164;2022-12-20T08:18:08;2.93;;;1.70;;
751;SDS011;360;48.764;9.164;2022-12-20T08:20:35;3.50;;;2.23;;
751;SDS011;360;48.764;9.164;2022-12-20T08:23:02;2.00;;;1.80;;
751;SDS011;360;48.764;9.164;2022-12-20T08:25:30;2.10;;;1.70;;
751;SDS011;360;48.764;9.164;2022-12-20T08:27:58;4.00;;;2.17;;
751;SDS011;360;48.764;9.164;2022-12-20T08:30:26;3.53;;;2.70;;
751;SDS011;360;48.764;9.164;2022-12-20T08:32:53;7.73;;;2.13;;
751;SDS011;360;48.764;9.164;2022-12-20T08:35:20;6.57;;;2.90;;
751;SDS011;360;48.764;9.164;2022-12-20T08:37:47;2.03;;;1.80;;
751;SDS011;360;48.764;9.164;2022-12-20T08:40:16;4.07;;;2.30;;
751;SDS011;360;48.764;9.164;2022-12-20T08:42:45;3.83;;;2.77;;
751;SDS011;360;48.764;9.164;2022-12-20T08:45:12;4.53;;;2.40;;
751;SDS011;360;48.764;9.164;2022-12-20T08:47:39;4.20;;;2.00;;
751;SDS011;360;48.764;9.164;2022-12-20T08:50:06;2.83;;;2.00;;
751;SDS011;360;48.764;9.164;2022-12-20T08:52:33;1.90;;;1.50;;
751;SDS011;360;48.764;9.164;2022-12-20T08:55:00;4.13;;;2.10;;
751;SDS011;360;48.764;9.164;2022-12-20T08:57:27;3.97;;;2.10;;
751;SDS011;360;48.764;9.164;2022-12-20T08:59:55;4.50;;;1.87;;
751;SDS011;360;48.764;9.164;2022-12-20T09:02:22;3.90;;;2.07;;
751;SDS011;360;48.764;9.164;2022-12-20T09:04:49;5.27;;;3.00;;
751;SDS011;360;48.764;9.164;2022-12-20T09:07:16;3.73;;;2.40;;
751;SDS011;360;48.764;9.164;2022-12-20T09:09:42;10.43;;;3.50;;
751;SDS011;360;48.764;9.164;2022-12-20T09:12:11;4.13;;;2.00;;
751;SDS011;360;48.764;9.164;2022-12-20T09:14:38;3.33;;;2.17;;
751;SDS011;360;48.764;9.164;2022-12-20T09:17:06;2.20;;;2.00;;
751;SDS011;360;48.764;9.164;2022-12-20T09:19:33;3.87;;;2.83;;
751;SDS011;360;48.764;9.164;2022-12-20T09:21:59;4.53;;;2.73;;
751;SDS011;360;48.764;9.164;2022-12-20T09:24:26;4.83;;;3.23;;
751;SDS011;360;48.764;9.164;2022-12-20T09:26:53;5.20;;;2.70;;
751;SDS011;360;48.764;9.164;2022-12-20T09:29:20;5.00;;;1.83;;
751;SDS011;360;48.764;9.164;2022-12-20T09:31:48;4.90;;;2.57;;
751;SDS011;360;48.764;9.164;2022-12-20T09:34:16;3.83;;;2.67;;
751;SDS011;360;48.764;9.164;2022-12-20T09:36:43;2.80;;;2.20;;
751;SDS011;360;48.764;9.164;2022-12-20T09:39:10;4.53;;;2.77;;
751;SDS011;360;48.764;9.164;2022-12-20T09:41:37;5.00;;;2.30;;
751;SDS011;360;48.764;9.164;2022-12-20T09:44:09;2.90;;;1.90;;
751;SDS011;360;48.764;9.164;2022-12-20T09:46:41;3.80;;;2.80;;
751;SDS011;360;48.764;9.164;2022-12-20T09:49:10;3.63;;;2.40;;
751;SDS011;360;48.764;9.164;2022-12-20T09:51:56;4.07;;;2.30;;
751;SDS011;360;48.764;9.164;2022-12-20T09:54:34;3.60;;;1.70;;
751;SDS011;360;48.764;9.164;2022-12-20T09:57:11;2.37;;;2.03;;
751;SDS011;360;48.764;9.164;2022-12-20T09:59:45;4.93;;;2.47;;
751;SDS011;360;48.764;9.164;2022-12-20T10:02:12;2.70;;;2.23;;
751;SDS011;360;48.764;9.164;2022-12-20T10:04:43;4.70;;;2.30;;
751;SDS011;360;48.764;9.164;2022-12-20T10:07:16;4.93;;;2.10;;
751;SDS011;360;48.764;9.164;2022-12-20T10:09:56;2.97;;;2.67;;
751;SDS011;360;48.764;9.164;2022-12-20T10:12:42;2.30;;;2.00;;
751;SDS011;360;48.764;9.164;2022-12-20T10:15:18;2.70;;;2.00;;
751;SDS011;360;48.764;9.164;2022-12-20T10:17:53;2.50;;;1.80;;
751;SDS011;360;48.764;9.164;2022-12-20T10:20:36;3.43;;;2.00;;
751;SDS011;360;48.764;9.164;2022-12-20T10:23:16;2.10;;;1.53;;
751;SDS011;360;48.764;9.164;2022-12-20T10:25:48;6.67;;;2.57;;
751;SDS011;360;48.764;9.164;2022-12-20T10:28:16;1.80;;;1.57;;
751;SDS011;360;48.764;9.164;2022-12-20T10:30:45;3.63;;;1.90;;
751;SDS011;360;48.764;9.164;2022-12-20T10:33:13;3.17;;;1.30;;
751;SDS011;360;48.764;9.164;2022-12-20T10:35:44;3.30;;;2.20;;
751;SDS011;360;48.764;9.164;2022-12-20T10:38:11;2.37;;;2.10;;
751;SDS011;360;48.764;9.164;2022-12-20T10:40:43;2.30;;;1.47;;
751;SDS011;360;48.764;9.164;2022-12-20T10:43:15;5.60;;;2.20;;
751;SDS011;360;48.764;9.164;2022-12-20T10:45:54;2.83;;;1.50;;
751;SDS011;360;48.764;9.164;2022-12-20T10:48:25;3.17;;;1.77;;
751;SDS011;360;48.764;9.164;2022-12-20T10:50:55;1.63;;;1.50;;
751;SDS011;360;48.764;9.164;2022-12-20T10:53:23;4.13;;;1.37;;
751;SDS011;360;48.764;9.164;2022-12-20T10:55:52;2.73;;;1.80;;
751;SDS011;360;48.764;9.164;2022-12-20T10:58:21;3.67;;;2.13;;
751;SDS011;360;48.764;9.164;2022-12-20T11:01:04;2.43;;;1.80;;
751;SDS011;360;48.764;9.164;2022-12-20T11:03:48;2.07;;;1.87;;
751;SDS011;360;48.764;9.164;2022-12-20T11:06:20;3.43;;;1.40;;
751;SDS011;360;48.764;9.164;2022-12-20T11:08:49;4.43;;;2.40;;
751;SDS011;360;48.764;9.164;2022-12-20T11:11:18;3.10;;;1.73;;
751;SDS011;360;48.764;9.164;2022-12-20T11:13:47;2.77;;;1.77;;
751;SDS011;360;48.764;9.164;2022-12-20T11:16:22;3.47;;;1.97;;
751;SDS011;360;48.764;9.164;2022-12-20T11:18:54;2.00;;;1.80;;
751;SDS011;360;48.764;9.164;2022-12-20T11:21:29;5.90;;;2.10;;
751;SDS011;360;48.764;9.164;2022-12-20T11:24:06;5.20;;;1.70;;
751;SDS011;360;48.764;9.164;2022-12-20T11:26:49;2.03;;;1.40;;
751;SDS011;360;48.764;9.164;2022-12-20T11:29:29;2.70;;;1.80;;
751;SDS011;360;48.764;9.164;2022-12-20T11:32:13;3.03;;;2.33;;
751;SDS011;360;48.764;9.164;2022-12-20T11:34:50;2.63;;;1.37;;
751;SDS011;360;48.764;9.164;2022-12-20T11:37:22;3.00;;;1.63;;
751;SDS011;360;48.764;9.164;2022-12-20T11:40:03;3.30;;;2.30;;
751;SDS011;360;48.764;9.164;2022-12-20T11:42:40;3.23;;;2.20;;
751;SDS011;360;48.764;9.164;2022-12-20T11:45:22;3.30;;;2.20;;
751;SDS011;360;48.764;9.164;2022-12-20T11:48:06;3.60;;;1.90;;
751;SDS011;360;48.764;9.164;2022-12-20T11:50:47;2.27;;;1.80;;
751;SDS011;360;48.764;9.164;2022-12-20T11:53:24;2.10;;;1.63;;
751;SDS011;360;48.764;9.164;2022-12-20T11:55:57;1.90;;;1.60;;
751;SDS011;360;48.764;9.164;2022-12-20T11:58:29;5.00;;;1.83;;
751;SDS011;360;48.764;9.164;2022-12-20T12:01:04;2.80;;;1.70;;
751;SDS011;360;48.764;9.164;2022-12-20T12:03:34;2.27;;;1.77;;
751;SDS011;360;48.764;9.164;2022-12-20T12:06:03;3.27;;;1.80;;
751;SDS011;360;48.764;9.164;2022-12-20T12:08:37;3.93;;;3.57;;
751;SDS011;360;48.764;9.164;2022-12-20T12:11:10;2.53;;;1.70;;
751;SDS011;360;48.764;9.164;2022-12-20T12:13:43;3.17;;;1.30;;
751;SDS011;360;48.764;9.164;2022-12-20T12:16:11;2.47;;;1.70;;
751;SDS011;360;48.764;9.164;2022-12-20T12:18:43;3.93;;;2.03;;
751;SDS011;360;48.764;9.164;2022-12-20T12:21:11;4.50;;;2.27;;
751;SDS011;360;48.764;9.164;2022-12-20T12:23:48;3.20;;;1.87;;
751;SDS011;360;48.764;9.164;2022-12-20T12:26:23;2.60;;;1.83;;
751;SDS011;360;48.764;9.164;2022-12-20T12:28:54;1.70;;;1.43;;
751;SDS011;360;48.764;9.164;2022-12-20T12:31:24;3.20;;;2.63;;
751;SDS011;360;48.764;9.164;2022-12-20T12:33:59;5.30;;;1.80;;
751;SDS011;360;48.764;9.164;2022-12-20T12:36:41;2.53;;;1.60;;
751;SDS011;360;48.764;9.164;2022-12-20T12:45:22;2.30;;;1.80;;
751;SDS011;360;48.764;9.164;2022-12-20T12:47:53;4.10;;;2.00;;
751;SDS011;360;48.764;9.164;2022-12-20T12:50:24;2.63;;;1.63;;
751;SDS011;360;48.764;9.164;2022-12-20T12:52:55;3.10;;;2.50;;
751;SDS011;360;48.764;9.164;2022-12-20T12:55:37;4.77;;;3.30;;
751;SDS011;360;48.764;9.164;2022-12-20T13:01:07;3.80;;;2.20;;
751;SDS011;360;48.764;9.164;2022-12-20T13:03:37;3.00;;;2.17;;
751;SDS011;360;48.764;9.164;2022-12-20T13:09:35;1.67;;;1.50;;
751;SDS011;360;48.764;9.164;2022-12-20T13:18:20;2.33;;;1.50;;
751;SDS011;360;48.764;9.164;2022-12-20T13:27:01;2.70;;;1.73;;
751;SDS011;360;48.764;9.164;2022-12-20T13:29:32;4.40;;;1.43;;
751;SDS011;360;48.764;9.164;2022-12-20T13:32:00;1.80;;;1.30;;
751;SDS011;360;48.764;9.164;2022-12-20T13:34:36;1.73;;;1.30;;
751;SDS011;360;48.764;9.164;2022-12-20T13:37:24;2.80;;;1.80;;
751;SDS011;360;48.764;9.164;2022-12-20T13:39:52;2.40;;;1.70;;
751;SDS011;360;48.764;9.164;2022-12-20T13:42:26;5.20;;;1.97;;
751;SDS011;360;48.764;9.164;2022-12-20T13:45:00;7.20;;;2.37;;
751;SDS011;360;48.764;9.164;2022-12-20T13:47:36;3.83;;;1.57;;
751;SDS011;360;48.764;9.164;2022-12-20T13:53:02;2.40;;;1.83;;
751;SDS011;360;48.764;9.164;2022-12-20T13:55:35;1.80;;;1.60;;
751;SDS011;360;48.764;9.164;2022-12-20T13:58:03;1.80;;;1.50;;
751;SDS011;360;48.764;9.164;2022-12-20T14:00:32;2.90;;;2.47;;
751;SDS011;360;48.764;9.164;2022-12-20T14:02:59;4.27;;;2.40;;
751;SDS011;360;48.764;9.164;2022-12-20T14:05:30;2.97;;;1.90;;
751;SDS011;360;48.764;9.164;2022-12-20T14:08:02;3.20;;;1.83;;
751;SDS011;360;48.764;9.164;2022-12-20T14:10:32;2.90;;;1.97;;
751;SDS011;360;48.764;9.164;2022-12-20T14:13:00;3.57;;;1.87;;
751;SDS011;360;48.764;9.164;2022-12-20T14:15:28;3.03;;;2.07;;
751;SDS011;360;48.764;9.164;2022-12-20T14:17:56;6.43;;;3.90;;
751;SDS011;360;48.764;9.164;2022-12-20T14:20:31;2.90;;;2.17;;
751;SDS011;360;48.764;9.164;2022-12-20T14:23:02;2.30;;;2.10;;
751;SDS011;360;48.764;9.164;2022-12-20T14:25:34;1.63;;;1.50;;
751;SDS011;360;48.764;9.164;2022-12-20T14:28:08;2.90;;;2.13;;
751;SDS011;360;48.764;9.164;2022-12-20T14:30:43;4.87;;;2.43;;
751;SDS011;360;48.764;9.164;2022-12-20T14:33:20;4.90;;;1.90;;
751;SDS011;360;48.764;9.164;2022-12-20T14:36:07;5.20;;;2.13;;
751;SDS011;360;48.764;9.164;2022-12-20T14:38:35;3.10;;;1.70;;
751;SDS011;360;48.764;9.164;2022-12-20T14:41:04;5.10;;;2.73;;
751;SDS011;360;48.764;9.164;2022-12-20T14:43:54;1.97;;;1.77;;
751;SDS011;360;48.764;9.164;2022-12-20T14:46:22;1.70;;;1.60;;
751;SDS011;360;48.764;9.164;2022-12-20T14:48:49;2.30;;;1.50;;
751;SDS011;360;48.764;9.164;2022-12-20T14:51:34;3.27;;;2.40;;
751;SDS011;360;48.764;9.164;2022-12-20T14:54:01;5.30;;;2.43;;
751;SDS011;360;48.764;9.164;2022-12-20T14:56:28;5.47;;;2.80;;
751;SDS011;360;48.764;9.164;2022-12-20T14:59:11;5.17;;;2.10;;
751;SDS011;360;48.764;9.164;2022-12-20T15:01:39;2.40;;;1.97;;
751;SDS011;360;48.764;9.164;2022-12-20T15:04:17;2.20;;;1.70;;
751;SDS011;360;48.764;9.164;2022-12-20T15:06:51;2.53;;;1.70;;
751;SDS011;360;48.764;9.164;2022-12-20T15:09:18;3.73;;;1.90;;
751;SDS011;360;48.764;9.164;2022-12-20T15:11:45;3.70;;;1.83;;
751;SDS011;360;48.764;9.164;2022-12-20T15:14:19;3.23;;;2.03;;
751;SDS011;360;48.764;9.164;2022-12-20T15:16:52;6.70;;;2.90;;
751;SDS011;360;48.764;9.164;2022-12-20T15:19:19;3.80;;;1.93;;
751;SDS011;360;48.764;9.164;2022-12-20T15:21:46;3.73;;;2.53;;
751;SDS011;360;48.764;9.164;2022-12-20T15:24:16;4.57;;;2.33;;
751;SDS011;360;48.764;9.164;2022-12-20T15:26:46;5.33;;;2.60;;
751;SDS011;360;48.764;9.164;2022-12-20T15:29:14;4.00;;;2.03;;
751;SDS011;360;48.764;9.164;2022-12-20T15:31:42;6.73;;;2.67;;
751;SDS011;360;48.764;9.164;2022-12-20T15:34:11;3.07;;;2.23;;
751;SDS011;360;48.764;9.164;2022-12-20T15:36:40;2.33;;;1.90;;
751;SDS011;360;48.764;9.164;2022-12-20T15:39:08;5.20;;;2.83;;
751;SDS011;360;48.764;9.164;2022-12-20T15:41:39;2.70;;;2.50;;
751;SDS011;360;48.764;9.164;2022-12-20T15:44:10;5.23;;;2.57;;
751;SDS011;360;48.764;9.164;2022-12-20T15:46:40;3.50;;;2.23;;
751;SDS011;360;48.764;9.164;2022-12-20T15:49:09;2.50;;;2.00;;
751;SDS011;360;48.764;9.164;2022-12-20T15:51:39;3.27;;;2.23;;
751;SDS011;360;48.764;9.164;2022-12-20T15:54:09;4.70;;;2.90;;
751;SDS011;360;48.764;9.164;2022-12-20T15:56:43;3.70;;;2.20;;
751;SDS011;360;48.764;9.164;2022-12-20T15:59:10;3.70;;;1.90;;
751;SDS011;360;48.764;9.164;2022-12-20T16:01:37;3.13;;;2.17;;
751;SDS011;360;48.764;9.164;2022-12-20T16:04:05;2.57;;;2.07;;
751;SDS011;360;48.764;9.164;2022-12-20T16:06:32;3.00;;;2.10;;
751;SDS011;360;48.764;9.164;2022-12-20T16:08:59;1.80;;;1.60;;
751;SDS011;360;48.764;9.164;2022-12-20T16:11:26;3.37;;;1.80;;
751;SDS011;360;48.764;9.164;2022-12-20T16:13:56;3.00;;;2.10;;
751;SDS011;360;48.764;9.164;2022-12-20T16:16:25;2.47;;;2.10;;
751;SDS011;360;48.764;9.164;2022-12-20T16:18:53;4.13;;;2.20;;
751;SDS011;360;48.764;9.164;2022-12-20T16:21:20;4.43;;;2.53;;
751;SDS011;360;48.764;9.164;2022-12-20T16:23:49;3.70;;;1.93;;
751;SDS011;360;48.764;9.164;2022-12-20T16:26:17;3.70;;;2.63;;
751;SDS011;360;48.764;9.164;2022-12-20T16:28:45;6.03;;;2.30;;
751;SDS011;360;48.764;9.164;2022-12-20T16:31:23;3.63;;;3.07;;
751;SDS011;360;48.764;9.164;2022-12-20T16:33:54;4.60;;;2.43;;